ケープタウン の空港の天気 - METARとTAF

ケープタウン国際空港 ( FACT / CPT ) - 南アフリカ ケープタウン
飛行場実況気象(Metar)
観測時間02/18 01:00 SAST (02/17 23:00 UTC)
風向・風速南 5m/s
視程10km以上
天気現象
なし
気温22℃
湿度73%
気圧1015hPa
METARFACT 172300Z 18010KT CAVOK 22/17 Q1015 NOSIG
過去の天気等 Google飛行場航空写真 Wunderground天気予報

過去48時間のMETAR

飛行場予報(TAF)
発表時間: 2/17 18:00 SAST (2/17 16:00 UTC)
予報対象時間: 17日20時 SAST ~ 18日20時 SAST
風向・風速南 6m/s
視程10km以上
なし
17日21時 SAST ~ 17日23時 SAST に徐々に
風向・風速南南西 4m/s
18日15時 SAST ~ 18日17時 SAST に徐々に
風向・風速南 10m/s
TAF FACT 171600Z 1718/1818 18012KT CAVOK TX30/1812Z TN17/1804Z
BECMG 1719/1721 20008KT
BECMG 1813/1815 18020KT